createdAt,value
2018-12-09T00:00:26.377Z,84.60
2018-12-09T00:03:01.185Z,84.30
2018-12-09T00:05:35.862Z,83.90
2018-12-09T00:08:13.380Z,83.70
2018-12-09T00:10:47.418Z,83.10
2018-12-09T00:13:21.294Z,83.20
2018-12-09T00:15:55.722Z,83.00
2018-12-09T00:18:30.687Z,82.00
2018-12-09T00:21:04.973Z,82.20
2018-12-09T00:23:38.953Z,82.20
2018-12-09T00:26:13.069Z,82.20
2018-12-09T00:28:48.385Z,82.00
2018-12-09T00:31:22.760Z,81.90
2018-12-09T00:33:57.236Z,82.00
2018-12-09T00:36:32.186Z,81.90
2018-12-09T00:39:06.147Z,81.90
2018-12-09T00:41:42.004Z,81.90
2018-12-09T00:44:16.435Z,81.90
2018-12-09T00:46:51.115Z,82.00
2018-12-09T00:49:25.605Z,81.90
2018-12-09T00:52:00.474Z,81.80
2018-12-09T00:54:36.586Z,81.90
2018-12-09T00:57:10.797Z,82.00
2018-12-09T00:59:44.904Z,82.00
2018-12-09T01:02:19.019Z,82.00
2018-12-09T01:04:54.148Z,82.00
2018-12-09T01:07:28.236Z,82.90
2018-12-09T01:10:02.962Z,82.90
2018-12-09T01:12:39.385Z,81.90
2018-12-09T01:15:13.369Z,81.80
2018-12-09T01:17:47.500Z,81.80
2018-12-09T01:20:21.242Z,82.00
2018-12-09T01:22:55.259Z,82.10
2018-12-09T01:25:29.675Z,82.40
2018-12-09T01:28:04.897Z,82.20
2018-12-09T01:30:38.800Z,82.40
2018-12-09T01:33:14.223Z,82.60
2018-12-09T01:35:49.406Z,83.00
2018-12-09T01:38:23.682Z,82.70
2018-12-09T01:40:58.125Z,82.60
2018-12-09T01:43:32.175Z,82.80
2018-12-09T01:46:07.310Z,82.50
2018-12-09T01:48:42.764Z,82.30
2018-12-09T01:51:18.007Z,82.30
2018-12-09T01:54:22.292Z,82.40
2018-12-09T01:56:57.884Z,82.40
2018-12-09T01:59:33.242Z,82.50
2018-12-09T02:02:07.427Z,82.60
2018-12-09T02:04:42.521Z,82.60
2018-12-09T02:07:17.822Z,82.10
2018-12-09T02:09:52.965Z,81.60
2018-12-09T02:12:28.989Z,81.70
2018-12-09T02:15:03.213Z,81.50
2018-12-09T02:17:37.447Z,81.70
2018-12-09T02:20:11.400Z,81.00
2018-12-09T02:22:45.350Z,80.60
2018-12-09T02:25:19.574Z,80.80
2018-12-09T02:27:54.277Z,80.20
2018-12-09T02:30:28.701Z,79.70
2018-12-09T02:33:04.719Z,79.40
2018-12-09T02:35:44.800Z,79.10
2018-12-09T02:38:18.574Z,78.30
2018-12-09T02:40:52.723Z,77.50
2018-12-09T02:43:26.794Z,77.60
2018-12-09T02:46:00.883Z,77.60
2018-12-09T02:48:35.728Z,76.50
2018-12-09T02:51:11.862Z,76.20
2018-12-09T02:53:47.236Z,75.20
2018-12-09T02:56:21.220Z,75.40
2018-12-09T02:58:56.250Z,76.60
2018-12-09T03:01:30.077Z,73.30
2018-12-09T03:04:04.264Z,74.20
2018-12-09T03:06:39.192Z,73.70
2018-12-09T03:09:13.227Z,72.10
2018-12-09T03:11:47.350Z,72.30
2018-12-09T03:14:21.330Z,72.50
2018-12-09T03:16:55.965Z,72.00
2018-12-09T03:19:31.273Z,72.50
2018-12-09T03:22:08.457Z,72.80
2018-12-09T03:24:42.406Z,73.60
2018-12-09T03:27:17.054Z,73.90
2018-12-09T03:29:51.076Z,73.00
2018-12-09T03:32:25.488Z,72.50
2018-12-09T03:34:59.541Z,73.30
2018-12-09T03:37:33.743Z,72.80
2018-12-09T03:40:07.644Z,72.20
2018-12-09T03:42:41.946Z,72.40
2018-12-09T03:45:15.969Z,72.10
2018-12-09T03:47:49.887Z,72.10
2018-12-09T03:50:23.727Z,72.00
2018-12-09T03:52:59.691Z,71.70
2018-12-09T03:55:34.610Z,72.20
2018-12-09T03:58:08.860Z,72.50
2018-12-09T04:00:43.263Z,72.90
2018-12-09T04:03:17.452Z,72.00
2018-12-09T04:05:51.350Z,72.10
2018-12-09T04:08:25.341Z,72.10
2018-12-09T04:10:59.459Z,72.10
2018-12-09T04:13:33.136Z,72.30
2018-12-09T04:16:07.144Z,72.60
2018-12-09T04:18:41.135Z,72.40
2018-12-09T04:21:15.903Z,72.70
2018-12-09T04:23:50.560Z,72.70
2018-12-09T04:26:24.745Z,73.80
2018-12-09T04:28:58.777Z,73.00
2018-12-09T04:31:32.673Z,72.70
2018-12-09T04:34:08.201Z,72.60
2018-12-09T04:36:44.258Z,72.70
2018-12-09T04:39:19.847Z,72.30
2018-12-09T04:41:54.874Z,72.70
2018-12-09T04:44:29.047Z,72.60
2018-12-09T04:47:02.540Z,72.90
2018-12-09T04:49:36.710Z,72.80
2018-12-09T04:52:10.885Z,72.90
2018-12-09T04:54:45.534Z,71.70
2018-12-09T04:57:19.459Z,70.20
2018-12-09T04:59:56.816Z,71.00
2018-12-09T05:02:30.697Z,70.90
2018-12-09T05:05:05.078Z,71.20
2018-12-09T05:07:39.887Z,71.40
2018-12-09T05:10:13.844Z,71.60
2018-12-09T05:12:48.086Z,71.90
2018-12-09T05:15:22.229Z,72.00
2018-12-09T05:17:57.541Z,72.80
2018-12-09T05:20:31.404Z,72.20
2018-12-09T05:23:06.200Z,72.30
2018-12-09T05:25:40.290Z,72.00
2018-12-09T05:28:15.894Z,71.90
2018-12-09T05:30:51.806Z,72.10
2018-12-09T05:33:25.883Z,72.10
2018-12-09T05:36:00.144Z,71.90
2018-12-09T05:38:35.270Z,72.20
2018-12-09T05:41:09.401Z,72.40
2018-12-09T05:43:42.873Z,72.20
2018-12-09T05:46:23.307Z,71.90
2018-12-09T05:48:59.889Z,71.70
2018-12-09T05:51:34.012Z,71.70
2018-12-09T05:54:19.535Z,71.30
2018-12-09T05:56:56.206Z,71.50
2018-12-09T05:59:31.159Z,71.60
2018-12-09T06:02:14.232Z,71.60
2018-12-09T06:04:49.123Z,71.50
2018-12-09T06:07:24.262Z,71.70
2018-12-09T06:09:58.559Z,71.70
2018-12-09T06:12:32.498Z,71.80
2018-12-09T06:15:06.421Z,71.60
2018-12-09T06:17:40.490Z,71.50
2018-12-09T06:20:14.821Z,71.50
2018-12-09T06:22:48.744Z,71.40
2018-12-09T06:25:23.584Z,71.30
2018-12-09T06:28:09.000Z,71.10
2018-12-09T06:30:43.015Z,71.40
2018-12-09T06:33:17.775Z,71.50
2018-12-09T06:35:52.185Z,71.60
2018-12-09T06:38:26.624Z,71.30
2018-12-09T06:41:00.743Z,70.30
2018-12-09T06:43:35.210Z,70.40
2018-12-09T06:46:12.379Z,70.40
2018-12-09T06:48:47.434Z,69.80
2018-12-09T06:51:22.952Z,70.00
2018-12-09T06:53:58.730Z,70.10
2018-12-09T06:56:34.235Z,69.90
2018-12-09T06:59:09.799Z,70.00
2018-12-09T07:01:43.350Z,69.80
2018-12-09T07:04:18.225Z,69.80
2018-12-09T07:06:52.171Z,69.90
2018-12-09T07:09:26.386Z,70.00
2018-12-09T07:12:00.506Z,69.30
2018-12-09T07:14:35.232Z,69.60
2018-12-09T07:17:12.489Z,68.90
2018-12-09T07:19:47.229Z,69.20
2018-12-09T07:22:21.404Z,69.30
2018-12-09T07:24:57.322Z,70.30
2018-12-09T07:27:31.638Z,69.80
2018-12-09T07:30:05.864Z,70.00
2018-12-09T07:32:40.340Z,69.90
2018-12-09T07:35:16.104Z,69.80
2018-12-09T07:37:51.287Z,69.90
2018-12-09T07:40:25.467Z,69.90
2018-12-09T07:42:59.389Z,69.70
2018-12-09T07:45:34.297Z,69.80
2018-12-09T07:48:08.199Z,69.70
2018-12-09T07:50:42.999Z,69.70
2018-12-09T07:53:16.620Z,70.00
2018-12-09T07:55:50.992Z,70.00
2018-12-09T07:58:25.234Z,69.60
2018-12-09T08:01:00.016Z,69.60
2018-12-09T08:03:34.440Z,69.60
2018-12-09T08:06:09.215Z,69.40
2018-12-09T08:08:43.759Z,69.10
2018-12-09T08:11:18.586Z,69.20
2018-12-09T08:13:53.660Z,69.40
2018-12-09T08:16:29.033Z,69.40
2018-12-09T08:19:10.799Z,69.80
2018-12-09T08:21:46.932Z,69.50
2018-12-09T08:24:20.742Z,69.30
2018-12-09T08:26:56.084Z,69.20
2018-12-09T08:29:35.703Z,69.30
2018-12-09T08:32:10.901Z,69.00
2018-12-09T08:34:44.658Z,68.90
2018-12-09T08:37:19.203Z,68.40
2018-12-09T08:39:53.558Z,68.30
2018-12-09T08:42:28.406Z,68.40
2018-12-09T08:45:03.254Z,68.20
2018-12-09T08:47:38.574Z,68.10
2018-12-09T08:50:12.556Z,68.10
2018-12-09T08:52:46.792Z,68.10
2018-12-09T08:55:20.987Z,68.40
2018-12-09T08:57:55.075Z,68.80
2018-12-09T09:00:29.512Z,69.20
2018-12-09T09:03:05.634Z,69.20
2018-12-09T09:05:39.832Z,69.40
2018-12-09T09:08:14.003Z,69.30
2018-12-09T09:10:48.230Z,69.50
2018-12-09T09:13:21.996Z,69.70
2018-12-09T09:15:56.769Z,69.80
2018-12-09T09:18:31.275Z,71.10
2018-12-09T09:21:05.393Z,70.40
2018-12-09T09:23:39.412Z,70.50
2018-12-09T09:26:13.663Z,70.70
2018-12-09T09:28:49.211Z,71.00
2018-12-09T09:31:24.527Z,71.10
2018-12-09T09:33:58.594Z,71.90
2018-12-09T09:36:32.769Z,71.40
2018-12-09T09:39:07.188Z,71.60
2018-12-09T09:41:41.412Z,71.60
2018-12-09T09:44:15.459Z,71.80
2018-12-09T09:46:52.035Z,71.80
2018-12-09T09:49:26.280Z,71.70
2018-12-09T09:52:00.471Z,71.80
2018-12-09T09:54:35.449Z,71.90
2018-12-09T09:57:09.197Z,72.10
2018-12-09T09:59:43.211Z,72.20
2018-12-09T10:02:17.529Z,72.20
2018-12-09T10:04:52.661Z,72.30
2018-12-09T10:07:27.917Z,72.10
2018-12-09T10:10:01.882Z,72.10
2018-12-09T10:12:37.266Z,72.40
2018-12-09T10:15:11.332Z,72.80
2018-12-09T10:17:45.469Z,73.70
2018-12-09T10:20:20.766Z,73.10
2018-12-09T10:22:55.651Z,73.20
2018-12-09T10:25:30.068Z,73.30
2018-12-09T10:28:04.169Z,73.40
2018-12-09T10:30:42.062Z,73.50
2018-12-09T10:33:16.495Z,73.70
2018-12-09T10:35:50.340Z,74.00
2018-12-09T10:38:24.450Z,74.60
2018-12-09T10:40:58.229Z,74.50
2018-12-09T10:43:32.139Z,74.60
2018-12-09T10:46:06.263Z,74.60
2018-12-09T10:48:40.487Z,74.80
2018-12-09T10:51:14.565Z,74.80
2018-12-09T10:53:49.683Z,74.90
2018-12-09T10:56:26.069Z,75.60
2018-12-09T10:59:01.555Z,75.10
2018-12-09T11:01:44.688Z,75.10
2018-12-09T11:04:18.226Z,75.10
2018-12-09T11:06:52.947Z,75.10
2018-12-09T11:09:27.680Z,74.90
2018-12-09T11:12:01.951Z,74.80
2018-12-09T11:14:36.035Z,74.90
2018-12-09T11:17:10.548Z,74.70
2018-12-09T11:19:45.103Z,74.70
2018-12-09T11:22:18.998Z,74.10
2018-12-09T11:24:53.891Z,73.00
2018-12-09T11:27:27.970Z,72.60
2018-12-09T11:30:02.262Z,72.40
2018-12-09T11:32:35.938Z,72.10
2018-12-09T11:35:10.060Z,71.00
2018-12-09T11:37:43.982Z,70.10
2018-12-09T11:40:19.783Z,70.00
2018-12-09T11:42:54.011Z,70.00
2018-12-09T11:45:28.923Z,70.00
2018-12-09T11:48:03.152Z,70.30
2018-12-09T11:50:37.451Z,70.60
2018-12-09T11:53:11.502Z,70.80
2018-12-09T11:55:45.293Z,70.90
2018-12-09T11:58:19.622Z,71.10
2018-12-09T12:00:53.375Z,71.20
2018-12-09T12:03:27.589Z,71.30
2018-12-09T12:06:03.109Z,71.40
2018-12-09T12:08:38.176Z,71.60
2018-12-09T12:11:14.237Z,71.60
2018-12-09T12:13:48.282Z,71.70
2018-12-09T12:16:22.683Z,71.80
2018-12-09T12:18:57.007Z,72.00
2018-12-09T12:21:30.772Z,72.10
2018-12-09T12:24:04.916Z,72.10
2018-12-09T12:26:41.221Z,72.20
2018-12-09T12:29:15.022Z,72.30
2018-12-09T12:31:49.175Z,72.40
2018-12-09T12:34:23.520Z,73.20
2018-12-09T12:36:58.790Z,72.30
2018-12-09T12:39:33.122Z,72.30
2018-12-09T12:42:07.151Z,72.30
2018-12-09T12:44:41.182Z,72.10
2018-12-09T12:47:16.162Z,72.00
2018-12-09T12:49:50.184Z,71.90
2018-12-09T12:52:24.061Z,71.90
2018-12-09T12:54:58.297Z,71.90
2018-12-09T12:57:32.511Z,71.60
2018-12-09T13:00:11.284Z,71.70
2018-12-09T13:02:45.956Z,71.70
2018-12-09T13:05:20.909Z,71.70
2018-12-09T13:07:56.456Z,72.00
2018-12-09T13:10:32.692Z,72.00
2018-12-09T13:13:06.985Z,72.20
2018-12-09T13:15:41.574Z,72.40
2018-12-09T13:18:16.173Z,72.50
2018-12-09T13:20:51.245Z,72.70
2018-12-09T13:23:25.434Z,72.90
2018-12-09T13:26:00.494Z,73.00
2018-12-09T13:28:34.727Z,73.20
2018-12-09T13:31:09.163Z,73.10
2018-12-09T13:33:43.325Z,73.30
2018-12-09T13:36:17.408Z,73.40
2018-12-09T13:38:51.222Z,73.70
2018-12-09T13:41:25.553Z,73.80
2018-12-09T13:43:59.234Z,74.00
2018-12-09T13:46:33.468Z,74.10
2018-12-09T13:49:07.247Z,74.30
2018-12-09T13:51:41.121Z,74.30
2018-12-09T13:54:15.542Z,74.40
2018-12-09T13:56:50.540Z,74.40
2018-12-09T13:59:27.528Z,74.40
2018-12-09T14:02:02.061Z,74.50
2018-12-09T14:04:37.994Z,74.60
2018-12-09T14:07:12.202Z,74.70
2018-12-09T14:09:46.294Z,74.80
2018-12-09T14:12:21.532Z,74.80
2018-12-09T14:14:55.343Z,74.90
2018-12-09T14:17:29.281Z,75.00
2018-12-09T14:20:05.467Z,75.20
2018-12-09T14:22:39.715Z,75.60
2018-12-09T14:25:14.933Z,75.10
2018-12-09T14:27:49.553Z,75.10
2018-12-09T14:30:24.509Z,75.10
2018-12-09T14:32:59.034Z,75.20
2018-12-09T14:35:32.799Z,75.20
2018-12-09T14:38:06.625Z,75.20
2018-12-09T14:40:40.404Z,74.90
2018-12-09T14:43:15.183Z,75.60
2018-12-09T14:45:49.290Z,75.40
2018-12-09T14:48:23.117Z,75.40
2018-12-09T14:50:57.359Z,75.30
2018-12-09T14:53:31.142Z,75.20
2018-12-09T14:56:09.863Z,74.90
2018-12-09T14:58:52.376Z,74.50
2018-12-09T15:01:27.246Z,74.30
2018-12-09T15:04:01.333Z,74.20
2018-12-09T15:06:35.310Z,74.10
2018-12-09T15:09:09.988Z,74.10
2018-12-09T15:11:45.997Z,73.90
2018-12-09T15:14:20.547Z,73.90
2018-12-09T15:16:54.601Z,73.90
2018-12-09T15:19:28.786Z,74.20
2018-12-09T15:22:02.477Z,74.00
2018-12-09T15:24:41.355Z,74.10
2018-12-09T15:27:12.359Z,74.30
2018-12-09T15:29:46.523Z,74.40
2018-12-09T15:32:20.311Z,75.40
2018-12-09T15:34:54.604Z,74.60
2018-12-09T15:37:28.629Z,74.70
2018-12-09T15:40:02.939Z,74.80
2018-12-09T15:42:36.786Z,75.00
2018-12-09T15:45:11.927Z,75.60
2018-12-09T15:47:45.795Z,75.00
2018-12-09T15:50:19.758Z,74.90
2018-12-09T15:52:53.686Z,75.10
2018-12-09T15:55:27.592Z,75.10
2018-12-09T15:58:01.158Z,75.10
2018-12-09T16:00:42.459Z,75.10
2018-12-09T16:03:17.100Z,75.10
2018-12-09T16:05:51.298Z,75.10
2018-12-09T16:08:25.341Z,75.20
2018-12-09T16:10:59.428Z,75.20
2018-12-09T16:13:35.705Z,75.40
2018-12-09T16:16:10.718Z,75.40
2018-12-09T16:18:44.640Z,75.40
2018-12-09T16:21:18.815Z,75.30
2018-12-09T16:23:52.961Z,75.10
2018-12-09T16:26:27.131Z,75.90
2018-12-09T16:29:01.680Z,75.20
2018-12-09T16:31:36.091Z,75.10
2018-12-09T16:34:09.973Z,75.10
2018-12-09T16:36:43.603Z,75.20
2018-12-09T16:39:17.974Z,75.30
2018-12-09T16:41:53.639Z,75.30
2018-12-09T16:44:29.536Z,75.40
2018-12-09T16:47:03.598Z,75.30
2018-12-09T16:49:37.618Z,75.30
2018-12-09T16:52:12.891Z,75.40
2018-12-09T16:54:46.937Z,75.40
2018-12-09T16:57:21.586Z,75.40
2018-12-09T16:59:56.581Z,75.40
2018-12-09T17:02:30.687Z,75.50
2018-12-09T17:05:04.754Z,75.40
2018-12-09T17:07:42.145Z,75.50
2018-12-09T17:10:15.366Z,75.70
2018-12-09T17:12:49.193Z,75.70
2018-12-09T17:15:23.602Z,75.70
2018-12-09T17:17:58.453Z,75.60
2018-12-09T17:20:34.850Z,75.70
2018-12-09T17:23:09.407Z,75.70
2018-12-09T17:25:43.542Z,75.70
2018-12-09T17:28:19.213Z,75.80
2018-12-09T17:30:53.342Z,75.80
2018-12-09T17:33:26.936Z,75.40
2018-12-09T17:36:00.803Z,75.90
2018-12-09T17:38:35.452Z,75.90
2018-12-09T17:41:09.654Z,76.10
2018-12-09T17:43:44.498Z,76.40
2018-12-09T17:46:18.749Z,76.40
2018-12-09T17:48:53.720Z,76.40
2018-12-09T17:51:28.152Z,77.00
2018-12-09T17:54:02.135Z,76.80
2018-12-09T17:56:36.013Z,76.80
2018-12-09T17:59:10.160Z,76.90
2018-12-09T18:01:44.426Z,76.90
2018-12-09T18:04:19.415Z,76.90
2018-12-09T18:06:53.272Z,76.90
2018-12-09T18:09:27.181Z,76.90
2018-12-09T18:12:01.354Z,77.30
2018-12-09T18:14:35.527Z,77.00
2018-12-09T18:17:09.404Z,77.00
2018-12-09T18:19:43.877Z,77.00
2018-12-09T18:22:17.490Z,76.90
2018-12-09T18:24:51.546Z,77.10
2018-12-09T18:27:25.380Z,77.10
2018-12-09T18:29:59.194Z,77.00
2018-12-09T18:32:33.505Z,77.10
2018-12-09T18:35:09.705Z,77.10
2018-12-09T18:37:44.202Z,77.00
2018-12-09T18:40:26.110Z,77.00
2018-12-09T18:42:59.727Z,76.90
2018-12-09T18:45:33.815Z,76.80
2018-12-09T18:48:07.751Z,76.90
2018-12-09T18:50:42.072Z,76.80
2018-12-09T18:53:16.205Z,76.80
2018-12-09T18:55:50.209Z,76.90
2018-12-09T18:58:25.067Z,77.00
2018-12-09T19:00:59.192Z,77.00
2018-12-09T19:03:33.539Z,77.00
2018-12-09T19:06:07.505Z,76.90
2018-12-09T19:08:41.822Z,76.90
2018-12-09T19:11:15.893Z,76.90
2018-12-09T19:13:49.751Z,77.00
2018-12-09T19:16:23.885Z,77.10
2018-12-09T19:18:58.031Z,77.00
2018-12-09T19:21:32.843Z,77.00
2018-12-09T19:24:07.214Z,77.10
2018-12-09T19:26:41.156Z,77.00
2018-12-09T19:29:15.304Z,76.90
2018-12-09T19:31:51.258Z,77.00
2018-12-09T19:34:25.274Z,76.90
2018-12-09T19:36:59.288Z,76.90
2018-12-09T19:39:33.083Z,76.90
2018-12-09T19:42:07.173Z,76.80
2018-12-09T19:44:41.134Z,76.80
2018-12-09T19:47:15.570Z,76.80
2018-12-09T19:49:51.249Z,76.90
2018-12-09T19:52:24.998Z,77.80
2018-12-09T19:54:59.597Z,77.20
2018-12-09T19:57:33.701Z,77.00
2018-12-09T20:00:08.633Z,77.00
2018-12-09T20:02:44.241Z,77.00
2018-12-09T20:05:19.052Z,76.80
2018-12-09T20:07:54.004Z,76.90
2018-12-09T20:10:28.047Z,77.00
2018-12-09T20:13:01.427Z,77.10
2018-12-09T20:15:35.440Z,77.10
2018-12-09T20:18:09.387Z,77.20
2018-12-09T20:20:43.494Z,77.30
2018-12-09T20:23:18.836Z,77.00
2018-12-09T20:25:52.762Z,77.10
2018-12-09T20:28:27.428Z,77.30
2018-12-09T20:31:02.915Z,77.30
2018-12-09T20:33:37.348Z,77.20
2018-12-09T20:36:11.309Z,77.30
2018-12-09T20:38:46.326Z,77.40
2018-12-09T20:41:20.320Z,77.50
2018-12-09T20:43:55.559Z,77.40
2018-12-09T20:46:29.916Z,77.40
2018-12-09T20:49:05.116Z,77.50
2018-12-09T20:51:39.147Z,77.40
2018-12-09T20:54:13.066Z,77.40
2018-12-09T20:56:47.217Z,77.30
2018-12-09T20:59:21.207Z,77.30
2018-12-09T21:01:56.886Z,77.20
2018-12-09T21:04:30.957Z,77.20
2018-12-09T21:07:05.806Z,77.20
2018-12-09T21:09:40.080Z,77.00
2018-12-09T21:12:14.260Z,77.00
2018-12-09T21:14:48.118Z,76.90
2018-12-09T21:17:22.204Z,76.80
2018-12-09T21:22:34.137Z,76.60
2018-12-09T21:25:08.798Z,76.60
2018-12-09T21:27:42.676Z,76.50
2018-12-09T21:30:17.846Z,76.40
2018-12-09T21:32:52.563Z,76.30
2018-12-09T21:35:26.556Z,75.90
2018-12-09T21:38:01.286Z,75.80
2018-12-09T21:40:35.277Z,75.70
2018-12-09T21:43:09.484Z,75.60
2018-12-09T21:45:43.609Z,75.60
2018-12-09T21:48:18.548Z,75.60
2018-12-09T21:50:52.740Z,75.50
2018-12-09T21:53:27.808Z,75.50
2018-12-09T21:56:01.755Z,75.50
2018-12-09T21:58:35.632Z,76.20
2018-12-09T22:01:09.864Z,75.10
2018-12-09T22:03:44.927Z,75.10
2018-12-09T22:06:18.928Z,74.90
2018-12-09T22:08:53.252Z,74.60
2018-12-09T22:11:27.102Z,74.60
2018-12-09T22:14:01.511Z,74.40
2018-12-09T22:16:35.946Z,74.40
2018-12-09T22:19:09.600Z,74.20
2018-12-09T22:21:43.796Z,74.00
2018-12-09T22:24:19.953Z,74.10
2018-12-09T22:26:54.979Z,73.70
2018-12-09T22:29:28.781Z,73.70
2018-12-09T22:32:02.761Z,73.80
2018-12-09T22:34:37.259Z,73.90
2018-12-09T22:37:11.258Z,73.70
2018-12-09T22:39:44.949Z,73.60
2018-12-09T22:42:19.281Z,73.60
2018-12-09T22:44:53.441Z,73.50
2018-12-09T22:47:27.540Z,73.70
2018-12-09T22:50:02.180Z,73.60
2018-12-09T22:52:37.148Z,73.60
2018-12-09T22:55:11.909Z,73.70
2018-12-09T22:57:46.267Z,73.70
2018-12-09T23:00:27.545Z,73.80
2018-12-09T23:03:07.464Z,73.70
2018-12-09T23:05:42.645Z,73.80
2018-12-09T23:08:17.604Z,73.80
2018-12-09T23:10:51.428Z,73.70
2018-12-09T23:13:25.531Z,73.70
2018-12-09T23:15:59.454Z,73.50
2018-12-09T23:18:33.480Z,73.60
2018-12-09T23:21:07.862Z,73.70
2018-12-09T23:23:41.913Z,73.80
2018-12-09T23:26:16.617Z,74.00
2018-12-09T23:28:51.368Z,73.90
2018-12-09T23:31:27.270Z,73.90
2018-12-09T23:34:01.575Z,73.80
2018-12-09T23:36:35.719Z,73.80
2018-12-09T23:39:11.064Z,73.80
2018-12-09T23:41:45.442Z,73.90
2018-12-09T23:44:19.253Z,73.80
2018-12-09T23:46:53.100Z,73.60
2018-12-09T23:49:27.227Z,73.70
2018-12-09T23:52:01.333Z,73.50
2018-12-09T23:54:35.273Z,73.60
2018-12-09T23:57:09.395Z,73.70
2018-12-09T23:59:44.730Z,73.70
